Main page
METAR-TAF:

METAR-TAF

Airports :

AAC Middle Wallop

Middle Wallop, England

latitude: 51-09N, longitude: 001-34W, elevation: 91 m

Current weather observation

The report was made 46 minutes ago, at 23:50 UTC
Wind 10 kt from the North/Northeast
Temperature 12°C
Humidity 82%
Pressure 1022 hPa
Visibility 10 km or more

METAR: EGVP 232350Z AUTO 03010KT 9999 // OVC070/// 12/09 Q1022

Time: 01:36 (00:36 UTC)

Forecast

The report was made 4 hours and 54 minutes ago, at 19:42 UTC
Forecast valid from 23 at 21 UTC to 23 at 24 UTC
Wind 10 kt from the North/Northeast
Visibility 10 km or more
Scattered clouds at a height of 3000 ft
Probability 30% :
Temporary
from 23 at 21 UTC to 23 at 24 UTC
Visibility: 7000 m
Scattered clouds at a height of 2500 ft, Towering cumulus.
rain showers

TAF: EGVP 231942Z 2321/2324 03010KT 9999 SCT030 PROB30 TEMPO 2321/2324 7000 SHRA SCT025TCU

Weather observations and forecasts of more than 4000 airports (METAR and TAF reports).

The available stations are represented by yellow and red dots on the map.

Hover mouse over dot to see the name of the station.

Then click to see weather observations and forecasts.

To change the map : click on the green buttons with a black cross to zoom in, on the green button with a dash to zoom out, or on the green arrows for adjacent maps.


METAR-TAF: